sensor_id;sensor_type;location;lat;lon;timestamp;temperature;humidity
9915;DHT22;4996;48.746;9.174;2023-08-08T00:00:48;14.50;99.90
9915;DHT22;4996;48.746;9.174;2023-08-08T00:03:14;14.40;99.90
9915;DHT22;4996;48.746;9.174;2023-08-08T00:05:39;14.40;99.90
9915;DHT22;4996;48.746;9.174;2023-08-08T00:08:06;14.40;99.90
9915;DHT22;4996;48.746;9.174;2023-08-08T00:10:31;14.40;99.90
9915;DHT22;4996;48.746;9.174;2023-08-08T00:12:57;14.40;99.90
9915;DHT22;4996;48.746;9.174;2023-08-08T00:15:23;14.30;99.90
9915;DHT22;4996;48.746;9.174;2023-08-08T00:17:48;14.40;99.90
9915;DHT22;4996;48.746;9.174;2023-08-08T00:20:14;14.40;99.90
9915;DHT22;4996;48.746;9.174;2023-08-08T00:22:39;14.40;99.90
9915;DHT22;4996;48.746;9.174;2023-08-08T00:25:05;14.40;99.90
9915;DHT22;4996;48.746;9.174;2023-08-08T00:27:31;14.50;99.90
9915;DHT22;4996;48.746;9.174;2023-08-08T00:29:56;14.50;99.90
9915;DHT22;4996;48.746;9.174;2023-08-08T00:32:22;14.50;99.90
9915;DHT22;4996;48.746;9.174;2023-08-08T00:34:47;14.60;99.90
9915;DHT22;4996;48.746;9.174;2023-08-08T00:37:13;14.60;99.90
9915;DHT22;4996;48.746;9.174;2023-08-08T00:39:38;14.60;99.90
9915;DHT22;4996;48.746;9.174;2023-08-08T00:42:04;14.60;99.90
9915;DHT22;4996;48.746;9.174;2023-08-08T00:44:30;14.60;99.90
9915;DHT22;4996;48.746;9.174;2023-08-08T00:46:55;14.60;99.90
9915;DHT22;4996;48.746;9.174;2023-08-08T00:49:21;14.50;99.90
9915;DHT22;4996;48.746;9.174;2023-08-08T00:51:48;14.50;99.90
9915;DHT22;4996;48.746;9.174;2023-08-08T00:54:15;14.60;99.90
9915;DHT22;4996;48.746;9.174;2023-08-08T00:56:40;14.60;99.90
9915;DHT22;4996;48.746;9.174;2023-08-08T00:59:07;14.50;99.90
9915;DHT22;4996;48.746;9.174;2023-08-08T01:01:33;14.60;99.90
9915;DHT22;4996;48.746;9.174;2023-08-08T01:03:59;14.60;99.90
9915;DHT22;4996;48.746;9.174;2023-08-08T01:06:29;14.60;99.90
9915;DHT22;4996;48.746;9.174;2023-08-08T01:09:04;14.70;99.90
9915;DHT22;4996;48.746;9.174;2023-08-08T01:11:31;14.70;99.90
9915;DHT22;4996;48.746;9.174;2023-08-08T01:14:00;14.70;99.90
9915;DHT22;4996;48.746;9.174;2023-08-08T01:16:27;14.70;99.90
9915;DHT22;4996;48.746;9.174;2023-08-08T01:18:54;14.80;99.90
9915;DHT22;4996;48.746;9.174;2023-08-08T01:21:20;14.70;99.90
9915;DHT22;4996;48.746;9.174;2023-08-08T01:23:57;14.70;99.90
9915;DHT22;4996;48.746;9.174;2023-08-08T01:26:26;14.70;99.90
9915;DHT22;4996;48.746;9.174;2023-08-08T01:28:53;14.70;99.90
9915;DHT22;4996;48.746;9.174;2023-08-08T01:31:20;14.70;99.90
9915;DHT22;4996;48.746;9.174;2023-08-08T01:33:45;14.80;99.90
9915;DHT22;4996;48.746;9.174;2023-08-08T01:36:15;14.80;99.90
9915;DHT22;4996;48.746;9.174;2023-08-08T01:38:47;14.90;99.90
9915;DHT22;4996;48.746;9.174;2023-08-08T01:41:15;14.90;99.90
9915;DHT22;4996;48.746;9.174;2023-08-08T01:43:41;14.90;99.90
9915;DHT22;4996;48.746;9.174;2023-08-08T01:46:07;14.90;99.90
9915;DHT22;4996;48.746;9.174;2023-08-08T01:48:33;14.90;99.90
9915;DHT22;4996;48.746;9.174;2023-08-08T01:50:59;14.90;99.90
9915;DHT22;4996;48.746;9.174;2023-08-08T01:53:25;15.00;99.90
9915;DHT22;4996;48.746;9.174;2023-08-08T01:55:50;15.00;99.90
9915;DHT22;4996;48.746;9.174;2023-08-08T01:58:17;15.10;99.90
9915;DHT22;4996;48.746;9.174;2023-08-08T02:00:43;15.00;99.90
9915;DHT22;4996;48.746;9.174;2023-08-08T02:03:10;15.00;99.90
9915;DHT22;4996;48.746;9.174;2023-08-08T02:05:35;15.10;99.90
9915;DHT22;4996;48.746;9.174;2023-08-08T02:08:01;15.00;99.90
9915;DHT22;4996;48.746;9.174;2023-08-08T02:10:26;15.10;99.90
9915;DHT22;4996;48.746;9.174;2023-08-08T02:12:52;15.10;99.90
9915;DHT22;4996;48.746;9.174;2023-08-08T02:15:18;15.10;99.90
9915;DHT22;4996;48.746;9.174;2023-08-08T02:17:44;15.20;99.90
9915;DHT22;4996;48.746;9.174;2023-08-08T02:20:10;15.20;99.90
9915;DHT22;4996;48.746;9.174;2023-08-08T02:22:37;15.10;99.90
9915;DHT22;4996;48.746;9.174;2023-08-08T02:25:03;15.10;99.90
9915;DHT22;4996;48.746;9.174;2023-08-08T02:27:29;15.20;99.90
9915;DHT22;4996;48.746;9.174;2023-08-08T02:29:54;15.20;99.90
9915;DHT22;4996;48.746;9.174;2023-08-08T02:32:20;15.20;99.90
9915;DHT22;4996;48.746;9.174;2023-08-08T02:34:45;15.20;99.90
9915;DHT22;4996;48.746;9.174;2023-08-08T02:37:11;15.10;99.90
9915;DHT22;4996;48.746;9.174;2023-08-08T02:39:37;15.10;99.90
9915;DHT22;4996;48.746;9.174;2023-08-08T02:42:03;15.10;99.90
9915;DHT22;4996;48.746;9.174;2023-08-08T02:44:28;15.10;99.90
9915;DHT22;4996;48.746;9.174;2023-08-08T02:46:54;15.10;99.90
9915;DHT22;4996;48.746;9.174;2023-08-08T02:49:19;15.00;99.90
9915;DHT22;4996;48.746;9.174;2023-08-08T02:51:45;15.00;99.90
9915;DHT22;4996;48.746;9.174;2023-08-08T02:54:10;14.90;99.90
9915;DHT22;4996;48.746;9.174;2023-08-08T02:56:36;14.90;99.90
9915;DHT22;4996;48.746;9.174;2023-08-08T02:59:01;14.90;99.90
9915;DHT22;4996;48.746;9.174;2023-08-08T03:01:27;14.80;99.90
9915;DHT22;4996;48.746;9.174;2023-08-08T03:03:52;14.80;99.90
9915;DHT22;4996;48.746;9.174;2023-08-08T03:06:18;14.80;99.90
9915;DHT22;4996;48.746;9.174;2023-08-08T03:08:43;14.80;99.90
9915;DHT22;4996;48.746;9.174;2023-08-08T03:11:09;14.80;99.90
9915;DHT22;4996;48.746;9.174;2023-08-08T03:13:34;15.00;99.90
9915;DHT22;4996;48.746;9.174;2023-08-08T03:16:00;14.70;99.90
9915;DHT22;4996;48.746;9.174;2023-08-08T03:18:25;14.60;99.90
9915;DHT22;4996;48.746;9.174;2023-08-08T03:20:52;14.60;99.90
9915;DHT22;4996;48.746;9.174;2023-08-08T03:23:17;14.60;99.90
9915;DHT22;4996;48.746;9.174;2023-08-08T03:25:43;14.60;99.90
9915;DHT22;4996;48.746;9.174;2023-08-08T03:28:09;14.60;99.90
9915;DHT22;4996;48.746;9.174;2023-08-08T03:30:36;14.60;99.90
9915;DHT22;4996;48.746;9.174;2023-08-08T03:33:02;14.50;99.90
9915;DHT22;4996;48.746;9.174;2023-08-08T03:35:28;14.50;99.90
9915;DHT22;4996;48.746;9.174;2023-08-08T03:37:53;14.50;99.90
9915;DHT22;4996;48.746;9.174;2023-08-08T03:40:19;14.50;99.90
9915;DHT22;4996;48.746;9.174;2023-08-08T03:42:44;14.50;99.90
9915;DHT22;4996;48.746;9.174;2023-08-08T03:45:10;14.50;99.90
9915;DHT22;4996;48.746;9.174;2023-08-08T03:47:36;14.40;99.90
9915;DHT22;4996;48.746;9.174;2023-08-08T03:50:01;14.50;99.90
9915;DHT22;4996;48.746;9.174;2023-08-08T03:52:27;14.50;99.90
9915;DHT22;4996;48.746;9.174;2023-08-08T03:54:52;14.50;99.90
9915;DHT22;4996;48.746;9.174;2023-08-08T03:57:18;14.50;99.90
9915;DHT22;4996;48.746;9.174;2023-08-08T03:59:44;14.50;99.90
9915;DHT22;4996;48.746;9.174;2023-08-08T04:02:09;14.60;99.90
9915;DHT22;4996;48.746;9.174;2023-08-08T04:04:35;14.60;99.90
9915;DHT22;4996;48.746;9.174;2023-08-08T04:07:00;14.70;99.90
9915;DHT22;4996;48.746;9.174;2023-08-08T04:09:26;14.70;99.90
9915;DHT22;4996;48.746;9.174;2023-08-08T04:11:52;14.80;99.90
9915;DHT22;4996;48.746;9.174;2023-08-08T04:14:17;14.80;99.90
9915;DHT22;4996;48.746;9.174;2023-08-08T04:16:43;14.80;99.90
9915;DHT22;4996;48.746;9.174;2023-08-08T04:19:08;14.90;99.90
9915;DHT22;4996;48.746;9.174;2023-08-08T04:21:34;14.80;99.90
9915;DHT22;4996;48.746;9.174;2023-08-08T04:23:59;14.90;99.90
9915;DHT22;4996;48.746;9.174;2023-08-08T04:26:25;15.00;99.90
9915;DHT22;4996;48.746;9.174;2023-08-08T04:28:51;15.00;99.90
9915;DHT22;4996;48.746;9.174;2023-08-08T04:31:17;15.00;99.90
9915;DHT22;4996;48.746;9.174;2023-08-08T04:33:43;15.00;99.90
9915;DHT22;4996;48.746;9.174;2023-08-08T04:36:08;15.00;99.90
9915;DHT22;4996;48.746;9.174;2023-08-08T04:38:34;15.00;99.90
9915;DHT22;4996;48.746;9.174;2023-08-08T04:40:59;15.00;99.90
9915;DHT22;4996;48.746;9.174;2023-08-08T04:43:25;15.10;99.90
9915;DHT22;4996;48.746;9.174;2023-08-08T04:45:53;15.10;99.90
9915;DHT22;4996;48.746;9.174;2023-08-08T04:48:18;15.10;99.90
9915;DHT22;4996;48.746;9.174;2023-08-08T04:50:46;15.10;99.90
9915;DHT22;4996;48.746;9.174;2023-08-08T04:53:11;15.20;99.90
9915;DHT22;4996;48.746;9.174;2023-08-08T04:55:37;15.10;99.90
9915;DHT22;4996;48.746;9.174;2023-08-08T04:58:03;15.20;99.90
9915;DHT22;4996;48.746;9.174;2023-08-08T05:00:28;15.20;99.90
9915;DHT22;4996;48.746;9.174;2023-08-08T05:02:54;15.20;99.90
9915;DHT22;4996;48.746;9.174;2023-08-08T05:05:19;15.30;99.90
9915;DHT22;4996;48.746;9.174;2023-08-08T05:07:45;15.30;99.90
9915;DHT22;4996;48.746;9.174;2023-08-08T05:10:10;15.30;99.90
9915;DHT22;4996;48.746;9.174;2023-08-08T05:12:36;15.30;99.90
9915;DHT22;4996;48.746;9.174;2023-08-08T05:15:01;15.30;99.90
9915;DHT22;4996;48.746;9.174;2023-08-08T05:17:29;15.30;99.90
9915;DHT22;4996;48.746;9.174;2023-08-08T05:19:55;15.30;99.90
9915;DHT22;4996;48.746;9.174;2023-08-08T05:22:20;15.20;99.90
9915;DHT22;4996;48.746;9.174;2023-08-08T05:24:46;15.20;99.90
9915;DHT22;4996;48.746;9.174;2023-08-08T05:27:11;15.20;99.90
9915;DHT22;4996;48.746;9.174;2023-08-08T05:29:37;15.20;99.90
9915;DHT22;4996;48.746;9.174;2023-08-08T05:32:04;15.20;99.90
9915;DHT22;4996;48.746;9.174;2023-08-08T05:34:32;15.20;99.90
9915;DHT22;4996;48.746;9.174;2023-08-08T05:36:58;15.10;99.90
9915;DHT22;4996;48.746;9.174;2023-08-08T05:39:23;15.00;99.90
9915;DHT22;4996;48.746;9.174;2023-08-08T05:41:49;15.00;99.90
9915;DHT22;4996;48.746;9.174;2023-08-08T05:44:14;15.00;99.90
9915;DHT22;4996;48.746;9.174;2023-08-08T05:46:40;15.00;99.90
9915;DHT22;4996;48.746;9.174;2023-08-08T05:49:05;15.00;99.90
9915;DHT22;4996;48.746;9.174;2023-08-08T05:51:32;15.10;99.90
9915;DHT22;4996;48.746;9.174;2023-08-08T05:53:57;15.20;99.90
9915;DHT22;4996;48.746;9.174;2023-08-08T05:56:23;15.30;99.90
9915;DHT22;4996;48.746;9.174;2023-08-08T05:58:48;15.30;99.90
9915;DHT22;4996;48.746;9.174;2023-08-08T06:01:14;15.40;99.90
9915;DHT22;4996;48.746;9.174;2023-08-08T06:03:39;15.40;99.90
9915;DHT22;4996;48.746;9.174;2023-08-08T06:06:05;15.60;99.90
9915;DHT22;4996;48.746;9.174;2023-08-08T06:08:31;15.60;99.90
9915;DHT22;4996;48.746;9.174;2023-08-08T06:10:57;15.60;99.90
9915;DHT22;4996;48.746;9.174;2023-08-08T06:13:23;16.00;99.90
9915;DHT22;4996;48.746;9.174;2023-08-08T06:15:49;15.80;99.90
9915;DHT22;4996;48.746;9.174;2023-08-08T06:18:14;15.90;99.90
9915;DHT22;4996;48.746;9.174;2023-08-08T06:20:40;16.10;99.90
9915;DHT22;4996;48.746;9.174;2023-08-08T06:23:06;16.10;99.90
9915;DHT22;4996;48.746;9.174;2023-08-08T06:25:32;16.20;99.90
9915;DHT22;4996;48.746;9.174;2023-08-08T06:27:58;16.30;99.90
9915;DHT22;4996;48.746;9.174;2023-08-08T06:30:23;16.50;99.90
9915;DHT22;4996;48.746;9.174;2023-08-08T06:32:48;16.60;99.90
9915;DHT22;4996;48.746;9.174;2023-08-08T06:35:14;16.70;99.90
9915;DHT22;4996;48.746;9.174;2023-08-08T06:37:42;16.90;99.90
9915;DHT22;4996;48.746;9.174;2023-08-08T06:40:08;16.80;99.90
9915;DHT22;4996;48.746;9.174;2023-08-08T06:42:34;17.00;99.90
9915;DHT22;4996;48.746;9.174;2023-08-08T06:45:00;17.00;99.90
9915;DHT22;4996;48.746;9.174;2023-08-08T06:47:25;16.90;99.90
9915;DHT22;4996;48.746;9.174;2023-08-08T06:49:51;17.00;99.90
9915;DHT22;4996;48.746;9.174;2023-08-08T06:52:17;17.10;99.90
9915;DHT22;4996;48.746;9.174;2023-08-08T06:54:42;17.20;99.90
9915;DHT22;4996;48.746;9.174;2023-08-08T06:57:08;17.30;99.90
9915;DHT22;4996;48.746;9.174;2023-08-08T06:59:33;17.50;99.90
9915;DHT22;4996;48.746;9.174;2023-08-08T07:01:59;17.70;99.90
9915;DHT22;4996;48.746;9.174;2023-08-08T07:04:24;17.80;99.90
9915;DHT22;4996;48.746;9.174;2023-08-08T07:06:50;17.90;99.90
9915;DHT22;4996;48.746;9.174;2023-08-08T07:09:16;17.90;99.90
9915;DHT22;4996;48.746;9.174;2023-08-08T07:11:41;18.00;99.90
9915;DHT22;4996;48.746;9.174;2023-08-08T07:14:07;18.20;99.90
9915;DHT22;4996;48.746;9.174;2023-08-08T07:16:33;18.20;99.90
9915;DHT22;4996;48.746;9.174;2023-08-08T07:18:59;18.20;99.90
9915;DHT22;4996;48.746;9.174;2023-08-08T07:21:24;18.20;99.90
9915;DHT22;4996;48.746;9.174;2023-08-08T07:23:50;18.30;99.90
9915;DHT22;4996;48.746;9.174;2023-08-08T07:26:16;18.50;99.90
9915;DHT22;4996;48.746;9.174;2023-08-08T07:28:41;18.60;99.90
9915;DHT22;4996;48.746;9.174;2023-08-08T07:31:07;18.70;99.90
9915;DHT22;4996;48.746;9.174;2023-08-08T07:33:32;18.80;99.90
9915;DHT22;4996;48.746;9.174;2023-08-08T07:35:58;18.90;99.90
9915;DHT22;4996;48.746;9.174;2023-08-08T07:38:24;18.90;99.90
9915;DHT22;4996;48.746;9.174;2023-08-08T07:40:49;19.00;99.90
9915;DHT22;4996;48.746;9.174;2023-08-08T07:43:15;19.20;99.90
9915;DHT22;4996;48.746;9.174;2023-08-08T07:45:41;19.20;99.90
9915;DHT22;4996;48.746;9.174;2023-08-08T07:48:07;19.40;99.90
9915;DHT22;4996;48.746;9.174;2023-08-08T07:50:32;19.70;99.90
9915;DHT22;4996;48.746;9.174;2023-08-08T07:52:58;19.90;99.90
9915;DHT22;4996;48.746;9.174;2023-08-08T07:55:23;20.10;99.90
9915;DHT22;4996;48.746;9.174;2023-08-08T07:57:49;20.10;99.90
9915;DHT22;4996;48.746;9.174;2023-08-08T08:00:15;20.00;99.90
9915;DHT22;4996;48.746;9.174;2023-08-08T08:02:44;20.00;99.90
9915;DHT22;4996;48.746;9.174;2023-08-08T08:05:11;20.10;99.90
9915;DHT22;4996;48.746;9.174;2023-08-08T08:07:37;20.00;99.90
9915;DHT22;4996;48.746;9.174;2023-08-08T08:10:04;20.20;99.90
9915;DHT22;4996;48.746;9.174;2023-08-08T08:12:31;20.30;99.90
9915;DHT22;4996;48.746;9.174;2023-08-08T08:14:58;20.30;99.90
9915;DHT22;4996;48.746;9.174;2023-08-08T08:17:23;20.30;99.90
9915;DHT22;4996;48.746;9.174;2023-08-08T08:19:51;20.40;99.90
9915;DHT22;4996;48.746;9.174;2023-08-08T08:22:17;20.40;99.90
9915;DHT22;4996;48.746;9.174;2023-08-08T08:24:42;20.50;99.90
9915;DHT22;4996;48.746;9.174;2023-08-08T08:27:08;20.50;99.90
9915;DHT22;4996;48.746;9.174;2023-08-08T08:29:33;20.80;99.90
9915;DHT22;4996;48.746;9.174;2023-08-08T08:31:59;20.90;99.90
9915;DHT22;4996;48.746;9.174;2023-08-08T08:34:25;21.00;99.90
9915;DHT22;4996;48.746;9.174;2023-08-08T08:36:50;20.60;99.90
9915;DHT22;4996;48.746;9.174;2023-08-08T08:39:16;20.60;99.90
9915;DHT22;4996;48.746;9.174;2023-08-08T08:41:41;20.70;99.90
9915;DHT22;4996;48.746;9.174;2023-08-08T08:44:08;20.90;99.90
9915;DHT22;4996;48.746;9.174;2023-08-08T08:46:35;21.00;99.90
9915;DHT22;4996;48.746;9.174;2023-08-08T08:49:02;20.70;99.90
9915;DHT22;4996;48.746;9.174;2023-08-08T08:51:30;20.70;99.90
9915;DHT22;4996;48.746;9.174;2023-08-08T08:53:58;20.90;99.90
9915;DHT22;4996;48.746;9.174;2023-08-08T08:56:23;20.90;99.90
9915;DHT22;4996;48.746;9.174;2023-08-08T08:58:50;21.10;99.90
9915;DHT22;4996;48.746;9.174;2023-08-08T09:01:16;21.20;99.90
9915;DHT22;4996;48.746;9.174;2023-08-08T09:03:44;21.00;99.90
9915;DHT22;4996;48.746;9.174;2023-08-08T09:06:11;21.30;99.90
9915;DHT22;4996;48.746;9.174;2023-08-08T09:08:37;21.40;99.90
9915;DHT22;4996;48.746;9.174;2023-08-08T09:11:03;21.90;99.90
9915;DHT22;4996;48.746;9.174;2023-08-08T09:13:36;21.70;99.90
9915;DHT22;4996;48.746;9.174;2023-08-08T09:16:01;21.80;99.90
9915;DHT22;4996;48.746;9.174;2023-08-08T09:18:27;22.00;99.90
9915;DHT22;4996;48.746;9.174;2023-08-08T09:20:52;21.90;99.90
9915;DHT22;4996;48.746;9.174;2023-08-08T09:23:18;22.00;99.90
9915;DHT22;4996;48.746;9.174;2023-08-08T09:25:43;21.90;99.90
9915;DHT22;4996;48.746;9.174;2023-08-08T09:28:09;21.70;99.90
9915;DHT22;4996;48.746;9.174;2023-08-08T09:30:34;22.00;99.90
9915;DHT22;4996;48.746;9.174;2023-08-08T09:33:00;21.70;99.90
9915;DHT22;4996;48.746;9.174;2023-08-08T09:35:28;21.50;99.90
9915;DHT22;4996;48.746;9.174;2023-08-08T09:37:54;21.70;99.90
9915;DHT22;4996;48.746;9.174;2023-08-08T09:40:20;21.50;99.90
9915;DHT22;4996;48.746;9.174;2023-08-08T09:42:46;21.80;99.90
9915;DHT22;4996;48.746;9.174;2023-08-08T09:45:12;22.00;99.90
9915;DHT22;4996;48.746;9.174;2023-08-08T09:47:38;22.10;99.90
9915;DHT22;4996;48.746;9.174;2023-08-08T09:50:04;22.30;99.40
9915;DHT22;4996;48.746;9.174;2023-08-08T09:52:30;22.40;99.90
9915;DHT22;4996;48.746;9.174;2023-08-08T09:54:56;22.60;99.90
9915;DHT22;4996;48.746;9.174;2023-08-08T09:57:22;22.40;99.10
9915;DHT22;4996;48.746;9.174;2023-08-08T09:59:48;22.50;99.20
9915;DHT22;4996;48.746;9.174;2023-08-08T10:02:15;22.00;99.30
9915;DHT22;4996;48.746;9.174;2023-08-08T10:04:47;22.00;99.10
9915;DHT22;4996;48.746;9.174;2023-08-08T10:07:13;22.30;98.90
9915;DHT22;4996;48.746;9.174;2023-08-08T10:09:40;22.20;98.50
9915;DHT22;4996;48.746;9.174;2023-08-08T10:12:07;22.00;98.60
9915;DHT22;4996;48.746;9.174;2023-08-08T10:14:35;21.80;98.90
9915;DHT22;4996;48.746;9.174;2023-08-08T10:17:06;21.80;99.10
9915;DHT22;4996;48.746;9.174;2023-08-08T10:19:32;21.80;99.30
9915;DHT22;4996;48.746;9.174;2023-08-08T10:21:59;22.10;98.80
9915;DHT22;4996;48.746;9.174;2023-08-08T10:24:35;22.30;98.50
9915;DHT22;4996;48.746;9.174;2023-08-08T10:27:02;22.70;99.10
9915;DHT22;4996;48.746;9.174;2023-08-08T10:29:29;22.80;98.40
9915;DHT22;4996;48.746;9.174;2023-08-08T10:32:03;22.80;97.00
9915;DHT22;4996;48.746;9.174;2023-08-08T10:34:42;22.80;97.80
9915;DHT22;4996;48.746;9.174;2023-08-08T10:37:16;22.70;97.20
9915;DHT22;4996;48.746;9.174;2023-08-08T10:39:58;22.60;96.60
9915;DHT22;4996;48.746;9.174;2023-08-08T10:42:26;22.40;95.80
9915;DHT22;4996;48.746;9.174;2023-08-08T10:44:57;22.50;95.50
9915;DHT22;4996;48.746;9.174;2023-08-08T10:47:37;22.40;95.30
9915;DHT22;4996;48.746;9.174;2023-08-08T10:50:08;22.50;96.00
9915;DHT22;4996;48.746;9.174;2023-08-08T10:52:54;22.50;95.00
9915;DHT22;4996;48.746;9.174;2023-08-08T10:55:25;22.80;93.20
9915;DHT22;4996;48.746;9.174;2023-08-08T10:58:04;22.70;93.10
9915;DHT22;4996;48.746;9.174;2023-08-08T11:00:33;22.80;91.70
9915;DHT22;4996;48.746;9.174;2023-08-08T11:03:00;22.30;91.80
9915;DHT22;4996;48.746;9.174;2023-08-08T11:05:28;22.60;93.30
9915;DHT22;4996;48.746;9.174;2023-08-08T11:07:54;23.00;93.60
9915;DHT22;4996;48.746;9.174;2023-08-08T11:10:21;23.20;92.80
9915;DHT22;4996;48.746;9.174;2023-08-08T11:13:03;23.00;92.50
9915;DHT22;4996;48.746;9.174;2023-08-08T11:15:31;23.00;92.60
9915;DHT22;4996;48.746;9.174;2023-08-08T11:17:57;23.50;92.40
9915;DHT22;4996;48.746;9.174;2023-08-08T11:20:23;23.60;91.50
9915;DHT22;4996;48.746;9.174;2023-08-08T11:22:54;23.80;91.40
9915;DHT22;4996;48.746;9.174;2023-08-08T11:25:21;24.40;90.10
9915;DHT22;4996;48.746;9.174;2023-08-08T11:27:54;24.80;89.10
9915;DHT22;4996;48.746;9.174;2023-08-08T11:30:21;24.70;83.10
9915;DHT22;4996;48.746;9.174;2023-08-08T11:32:47;24.90;81.10
9915;DHT22;4996;48.746;9.174;2023-08-08T11:35:24;25.50;80.10
9915;DHT22;4996;48.746;9.174;2023-08-08T11:37:54;24.90;80.50
9915;DHT22;4996;48.746;9.174;2023-08-08T11:40:22;24.60;81.00
9915;DHT22;4996;48.746;9.174;2023-08-08T11:42:49;24.70;81.00
9915;DHT22;4996;48.746;9.174;2023-08-08T11:45:16;24.50;81.20
9915;DHT22;4996;48.746;9.174;2023-08-08T11:47:42;24.60;81.80
9915;DHT22;4996;48.746;9.174;2023-08-08T11:50:09;24.50;81.50
9915;DHT22;4996;48.746;9.174;2023-08-08T11:52:41;24.70;83.90
9915;DHT22;4996;48.746;9.174;2023-08-08T11:55:10;24.30;82.10
9915;DHT22;4996;48.746;9.174;2023-08-08T11:57:37;24.10;82.00
9915;DHT22;4996;48.746;9.174;2023-08-08T12:00:07;23.70;82.00
9915;DHT22;4996;48.746;9.174;2023-08-08T12:02:34;23.60;80.90
9915;DHT22;4996;48.746;9.174;2023-08-08T12:05:11;24.30;79.40
9915;DHT22;4996;48.746;9.174;2023-08-08T12:07:37;25.20;78.30
9915;DHT22;4996;48.746;9.174;2023-08-08T12:10:06;25.50;78.50
9915;DHT22;4996;48.746;9.174;2023-08-08T12:12:38;25.30;79.40
9915;DHT22;4996;48.746;9.174;2023-08-08T12:15:07;25.00;79.10
9915;DHT22;4996;48.746;9.174;2023-08-08T12:17:34;25.30;79.40
9915;DHT22;4996;48.746;9.174;2023-08-08T12:20:00;25.80;78.80
9915;DHT22;4996;48.746;9.174;2023-08-08T12:22:26;26.30;77.20
9915;DHT22;4996;48.746;9.174;2023-08-08T12:24:52;26.70;75.10
9915;DHT22;4996;48.746;9.174;2023-08-08T12:27:17;26.80;76.10
9915;DHT22;4996;48.746;9.174;2023-08-08T12:29:43;27.20;73.70
9915;DHT22;4996;48.746;9.174;2023-08-08T12:32:08;27.10;73.60
9915;DHT22;4996;48.746;9.174;2023-08-08T12:34:34;26.20;73.90
9915;DHT22;4996;48.746;9.174;2023-08-08T12:37:01;25.70;74.20
9915;DHT22;4996;48.746;9.174;2023-08-08T12:39:26;25.70;75.30
9915;DHT22;4996;48.746;9.174;2023-08-08T12:41:52;26.10;76.70
9915;DHT22;4996;48.746;9.174;2023-08-08T12:44:17;26.60;75.60
9915;DHT22;4996;48.746;9.174;2023-08-08T12:46:43;26.80;76.00
9915;DHT22;4996;48.746;9.174;2023-08-08T12:49:08;26.90;75.20
9915;DHT22;4996;48.746;9.174;2023-08-08T12:51:34;26.80;75.00
9915;DHT22;4996;48.746;9.174;2023-08-08T12:53:59;26.80;74.60
9915;DHT22;4996;48.746;9.174;2023-08-08T12:56:25;26.80;74.10
9915;DHT22;4996;48.746;9.174;2023-08-08T12:58:50;27.10;74.70
9915;DHT22;4996;48.746;9.174;2023-08-08T13:01:16;27.70;73.10
9915;DHT22;4996;48.746;9.174;2023-08-08T13:03:41;27.10;73.00
9915;DHT22;4996;48.746;9.174;2023-08-08T13:06:07;27.50;74.00
9915;DHT22;4996;48.746;9.174;2023-08-08T13:08:32;27.00;74.20
9915;DHT22;4996;48.746;9.174;2023-08-08T13:10:58;26.80;73.80
9915;DHT22;4996;48.746;9.174;2023-08-08T13:13:23;26.70;73.40
9915;DHT22;4996;48.746;9.174;2023-08-08T13:15:51;26.20;73.60
9915;DHT22;4996;48.746;9.174;2023-08-08T13:18:17;25.60;73.30
9915;DHT22;4996;48.746;9.174;2023-08-08T13:20:42;24.80;75.20
9915;DHT22;4996;48.746;9.174;2023-08-08T13:23:08;24.30;76.90
9915;DHT22;4996;48.746;9.174;2023-08-08T13:25:34;23.70;78.60
9915;DHT22;4996;48.746;9.174;2023-08-08T13:28:02;23.50;80.00
9915;DHT22;4996;48.746;9.174;2023-08-08T13:30:28;23.40;80.50
9915;DHT22;4996;48.746;9.174;2023-08-08T13:32:54;23.50;80.80
9915;DHT22;4996;48.746;9.174;2023-08-08T13:35:20;23.60;82.30
9915;DHT22;4996;48.746;9.174;2023-08-08T13:37:46;23.50;82.10
9915;DHT22;4996;48.746;9.174;2023-08-08T13:40:15;23.80;82.70
9915;DHT22;4996;48.746;9.174;2023-08-08T13:42:40;24.00;82.30
9915;DHT22;4996;48.746;9.174;2023-08-08T13:45:06;24.20;80.80
9915;DHT22;4996;48.746;9.174;2023-08-08T13:47:32;24.20;81.20
9915;DHT22;4996;48.746;9.174;2023-08-08T13:49:58;24.00;81.30
9915;DHT22;4996;48.746;9.174;2023-08-08T13:52:23;23.80;82.00
9915;DHT22;4996;48.746;9.174;2023-08-08T13:54:49;23.80;82.80
9915;DHT22;4996;48.746;9.174;2023-08-08T13:57:15;23.80;82.90
9915;DHT22;4996;48.746;9.174;2023-08-08T13:59:40;23.60;82.70
9915;DHT22;4996;48.746;9.174;2023-08-08T14:02:06;23.70;84.30
9915;DHT22;4996;48.746;9.174;2023-08-08T14:04:31;23.70;81.20
9915;DHT22;4996;48.746;9.174;2023-08-08T14:06:57;23.80;81.60
9915;DHT22;4996;48.746;9.174;2023-08-08T14:09:23;23.90;81.90
9915;DHT22;4996;48.746;9.174;2023-08-08T14:11:48;24.00;83.40
9915;DHT22;4996;48.746;9.174;2023-08-08T14:14:14;23.70;81.90
9915;DHT22;4996;48.746;9.174;2023-08-08T14:16:39;23.70;81.60
9915;DHT22;4996;48.746;9.174;2023-08-08T14:19:05;24.00;81.70
9915;DHT22;4996;48.746;9.174;2023-08-08T14:21:30;23.90;81.90
9915;DHT22;4996;48.746;9.174;2023-08-08T14:23:56;24.00;82.70
9915;DHT22;4996;48.746;9.174;2023-08-08T14:26:21;23.80;81.70
9915;DHT22;4996;48.746;9.174;2023-08-08T14:28:47;23.70;82.50
9915;DHT22;4996;48.746;9.174;2023-08-08T14:31:12;23.50;83.60
9915;DHT22;4996;48.746;9.174;2023-08-08T14:33:38;23.30;83.30
9915;DHT22;4996;48.746;9.174;2023-08-08T14:36:03;23.30;83.80
9915;DHT22;4996;48.746;9.174;2023-08-08T14:38:34;23.20;83.40
9915;DHT22;4996;48.746;9.174;2023-08-08T14:41:01;22.90;84.30
9915;DHT22;4996;48.746;9.174;2023-08-08T14:43:27;22.80;84.10
9915;DHT22;4996;48.746;9.174;2023-08-08T14:45:52;22.90;84.90
9915;DHT22;4996;48.746;9.174;2023-08-08T14:48:18;22.70;84.60
9915;DHT22;4996;48.746;9.174;2023-08-08T14:50:43;22.80;85.60
9915;DHT22;4996;48.746;9.174;2023-08-08T14:53:09;22.70;85.10
9915;DHT22;4996;48.746;9.174;2023-08-08T14:55:35;22.60;85.60
9915;DHT22;4996;48.746;9.174;2023-08-08T14:58:00;22.60;86.20
9915;DHT22;4996;48.746;9.174;2023-08-08T15:00:26;22.50;86.00
9915;DHT22;4996;48.746;9.174;2023-08-08T15:02:51;22.60;87.10
9915;DHT22;4996;48.746;9.174;2023-08-08T15:05:17;22.60;87.30
9915;DHT22;4996;48.746;9.174;2023-08-08T15:07:42;22.70;86.50
9915;DHT22;4996;48.746;9.174;2023-08-08T15:10:08;22.50;84.80
9915;DHT22;4996;48.746;9.174;2023-08-08T15:12:34;22.60;85.20
9915;DHT22;4996;48.746;9.174;2023-08-08T15:15:00;22.50;85.50
9915;DHT22;4996;48.746;9.174;2023-08-08T15:17:26;22.40;87.10
9915;DHT22;4996;48.746;9.174;2023-08-08T15:19:52;22.50;86.20
9915;DHT22;4996;48.746;9.174;2023-08-08T15:22:17;22.40;87.60
9915;DHT22;4996;48.746;9.174;2023-08-08T15:24:43;22.40;87.70
9915;DHT22;4996;48.746;9.174;2023-08-08T15:27:09;22.30;88.20
9915;DHT22;4996;48.746;9.174;2023-08-08T15:29:34;22.40;88.30
9915;DHT22;4996;48.746;9.174;2023-08-08T15:32:00;22.60;87.50
9915;DHT22;4996;48.746;9.174;2023-08-08T15:34:25;22.80;89.00
9915;DHT22;4996;48.746;9.174;2023-08-08T15:36:51;22.80;87.40
9915;DHT22;4996;48.746;9.174;2023-08-08T15:39:16;22.50;88.10
9915;DHT22;4996;48.746;9.174;2023-08-08T15:41:43;22.30;88.30
9915;DHT22;4996;48.746;9.174;2023-08-08T15:44:09;22.20;89.20
9915;DHT22;4996;48.746;9.174;2023-08-08T15:46:34;22.20;89.00
9915;DHT22;4996;48.746;9.174;2023-08-08T15:49:00;22.10;89.80
9915;DHT22;4996;48.746;9.174;2023-08-08T15:51:25;22.00;90.30
9915;DHT22;4996;48.746;9.174;2023-08-08T15:53:51;22.10;90.20
9915;DHT22;4996;48.746;9.174;2023-08-08T15:56:16;21.80;90.20